Time;durP1;ratioP1;P1;durP2;ratioP2;P2;SDS_P1;SDS_P2;PMS_P1;PMS_P2;Temp;Humidity;BMP_temperature;BMP_pressure;BME280_temperature;BME280_humidity;BME280_pressure;Samples;Min_cycle;Max_cycle;Signal;HPM_P1;HPM_P2
2023/11/04 00:00:54;;;;;;;5.23;2.77;;;10.10;99.90;;;;;;5048252;28;20421;-64
2023/11/04 00:03:20;;;;;;;5.70;2.20;;;10.10;99.90;;;;;;5052201;28;20757;-64
2023/11/04 00:05:46;;;;;;;9.00;1.90;;;10.00;99.90;;;;;;5051898;28;20207;-64
2023/11/04 00:08:14;;;;;;;6.53;2.40;;;10.00;99.90;;;;;;5051814;28;20171;-63
2023/11/04 00:10:40;;;;;;;7.73;3.50;;;9.90;99.90;;;;;;5051986;28;20167;-64
2023/11/04 00:13:09;;;;;;;3.97;2.17;;;9.90;99.90;;;;;;5051529;28;20401;-64
2023/11/04 00:15:35;;;;;;;4.10;2.10;;;9.90;99.90;;;;;;5050110;28;20461;-64
2023/11/04 00:18:00;;;;;;;6.30;2.20;;;9.90;99.90;;;;;;5051583;28;20418;-64
2023/11/04 00:20:26;;;;;;;8.23;1.97;;;9.90;99.90;;;;;;5056338;28;20648;-65
2023/11/04 00:22:53;;;;;;;4.70;2.10;;;9.90;99.90;;;;;;5058959;28;20170;-63
2023/11/04 00:25:18;;;;;;;10.33;2.10;;;9.90;99.90;;;;;;5063923;28;20444;-62
2023/11/04 00:27:44;;;;;;;4.00;2.30;;;9.80;99.90;;;;;;5066722;28;20443;-64
2023/11/04 00:30:10;;;;;;;4.03;2.90;;;9.80;99.90;;;;;;5052461;28;20175;-63
2023/11/04 00:32:35;;;;;;;3.00;2.30;;;9.80;99.90;;;;;;5052415;28;20175;-65
2023/11/04 00:35:03;;;;;;;5.13;2.20;;;9.70;99.90;;;;;;5051652;28;20449;-66
2023/11/04 00:37:29;;;;;;;4.93;2.30;;;9.70;99.90;;;;;;5050107;28;20191;-65
2023/11/04 00:39:54;;;;;;;7.90;2.27;;;9.60;99.90;;;;;;5051149;28;20428;-66
2023/11/04 00:42:20;;;;;;;3.63;1.83;;;9.60;99.90;;;;;;5051085;28;20171;-63
2023/11/04 00:44:45;;;;;;;5.47;2.30;;;9.60;99.90;;;;;;5051149;28;20167;-64
2023/11/04 00:47:11;;;;;;;7.70;3.20;;;9.50;99.90;;;;;;5050964;28;20198;-63
2023/11/04 00:49:37;;;;;;;8.50;1.70;;;9.50;99.90;;;;;;5051150;28;20174;-64
2023/11/04 00:52:03;;;;;;;8.53;2.30;;;9.50;99.90;;;;;;5050824;28;20179;-63
2023/11/04 00:54:29;;;;;;;2.40;1.70;;;9.50;99.90;;;;;;5051066;28;20777;-64
2023/11/04 00:56:55;;;;;;;5.23;2.27;;;9.40;99.90;;;;;;5049399;28;20328;-64
2023/11/04 00:59:21;;;;;;;4.50;1.67;;;9.40;99.90;;;;;;5054758;28;20174;-63
2023/11/04 01:01:47;;;;;;;7.70;2.10;;;9.40;99.90;;;;;;5057179;28;20418;-63
2023/11/04 01:04:13;;;;;;;5.50;2.40;;;9.40;99.90;;;;;;5055326;28;20487;-63
2023/11/04 01:06:38;;;;;;;4.93;2.47;;;9.40;99.90;;;;;;5051448;28;20707;-63
2023/11/04 01:09:04;;;;;;;6.20;2.43;;;9.40;99.90;;;;;;5051291;28;20182;-64
2023/11/04 01:11:30;;;;;;;4.10;2.33;;;9.40;99.90;;;;;;5051239;28;20539;-64
2023/11/04 01:13:56;;;;;;;8.30;2.60;;;9.30;99.90;;;;;;5043908;28;20460;-64
2023/11/04 01:16:21;;;;;;;3.43;1.90;;;9.30;99.90;;;;;;5050943;28;20258;-63
2023/11/04 01:18:47;;;;;;;4.57;1.90;;;9.30;99.90;;;;;;5051345;28;20406;-64
2023/11/04 01:21:13;;;;;;;7.93;2.63;;;9.30;99.90;;;;;;5051084;28;20198;-63
2023/11/04 01:23:38;;;;;;;2.80;2.07;;;9.30;99.90;;;;;;5051592;28;20258;-64
2023/11/04 01:26:04;;;;;;;4.00;1.93;;;9.20;99.90;;;;;;5050771;28;20195;-65
2023/11/04 01:28:30;;;;;;;7.00;2.43;;;9.20;99.90;;;;;;5051126;28;20192;-64
2023/11/04 01:30:55;;;;;;;5.70;2.80;;;9.20;99.90;;;;;;5046285;28;20179;-64
2023/11/04 01:33:21;;;;;;;3.13;1.57;;;9.20;99.90;;;;;;5051058;28;20185;-63
2023/11/04 01:35:46;;;;;;;13.03;2.50;;;9.20;99.90;;;;;;5050920;28;20264;-64
2023/11/04 01:38:12;;;;;;;4.50;2.30;;;9.20;99.90;;;;;;5049115;28;20668;-64
2023/11/04 01:40:37;;;;;;;4.13;2.40;;;9.20;99.90;;;;;;5047138;28;20171;-63
2023/11/04 01:43:03;;;;;;;3.53;1.87;;;9.20;99.90;;;;;;5051177;28;20458;-64
2023/11/04 01:45:28;;;;;;;4.83;1.87;;;9.20;99.90;;;;;;5050663;28;20213;-64
2023/11/04 01:47:54;;;;;;;4.73;1.33;;;9.20;99.90;;;;;;5051010;28;20171;-63
2023/11/04 01:50:20;;;;;;;6.13;2.60;;;9.20;99.90;;;;;;5050601;28;20210;-63
2023/11/04 01:52:46;;;;;;;2.87;2.00;;;9.20;99.90;;;;;;5050622;28;20174;-64
2023/11/04 01:55:13;;;;;;;6.50;2.00;;;9.20;99.90;;;;;;5050502;28;20198;-64
2023/11/04 01:57:39;;;;;;;6.83;1.60;;;9.10;99.90;;;;;;5049324;28;20449;-64
2023/11/04 02:00:09;;;;;;;3.93;1.73;;;9.10;99.90;;;;;;5067047;28;20444;-64
2023/11/04 02:02:35;;;;;;;3.00;1.40;;;9.00;99.90;;;;;;5070889;28;20408;-63
2023/11/04 02:05:01;;;;;;;5.10;2.00;;;8.90;99.90;;;;;;5070589;28;20470;-64
2023/11/04 02:07:28;;;;;;;3.13;1.60;;;8.80;99.90;;;;;;5070560;28;21060;-63
2023/11/04 02:09:53;;;;;;;3.33;1.40;;;8.80;99.90;;;;;;5070519;28;20801;-63
2023/11/04 02:12:21;;;;;;;10.13;2.27;;;8.70;99.90;;;;;;5070667;28;20416;-63
2023/11/04 02:14:53;;;;;;;3.80;2.03;;;8.70;99.90;;;;;;5053767;28;20369;-64
2023/11/04 02:17:19;;;;;;;5.13;2.20;;;8.60;99.90;;;;;;5050877;28;20437;-63
2023/11/04 02:19:45;;;;;;;6.07;1.90;;;8.60;99.90;;;;;;5050842;28;20412;-63
2023/11/04 02:22:11;;;;;;;3.53;2.10;;;8.50;99.90;;;;;;5050296;28;20428;-62
2023/11/04 02:24:37;;;;;;;6.00;2.50;;;8.50;99.90;;;;;;5048343;28;20550;-62
2023/11/04 02:27:03;;;;;;;13.40;2.20;;;8.40;99.90;;;;;;5058698;28;20440;-64
2023/11/04 02:29:29;;;;;;;7.40;2.20;;;8.30;99.90;;;;;;5058501;28;20429;-63
2023/11/04 02:31:54;;;;;;;3.27;2.07;;;8.30;99.90;;;;;;5063136;28;20176;-62
2023/11/04 02:34:20;;;;;;;4.83;2.10;;;8.20;99.90;;;;;;5060076;28;20281;-61
2023/11/04 02:36:46;;;;;;;5.37;1.90;;;8.10;99.90;;;;;;5064136;28;20204;-62
2023/11/04 02:39:11;;;;;;;2.83;1.77;;;8.10;99.90;;;;;;5040626;28;20646;-64
2023/11/04 02:41:37;;;;;;;3.43;1.70;;;8.10;99.90;;;;;;5057876;28;20254;-63
2023/11/04 02:44:03;;;;;;;5.43;2.23;;;8.00;99.90;;;;;;5061587;28;20234;-62
2023/11/04 02:46:28;;;;;;;4.07;1.90;;;8.00;99.90;;;;;;5061394;28;20214;-61
2023/11/04 02:48:54;;;;;;;6.90;2.40;;;7.90;99.90;;;;;;5061546;28;20180;-62
2023/11/04 02:51:20;;;;;;;1.90;1.40;;;7.90;99.90;;;;;;5036380;28;20181;-62
2023/11/04 02:53:45;;;;;;;6.60;3.40;;;7.90;99.90;;;;;;5040497;28;20175;-62
2023/11/04 02:56:15;;;;;;;4.80;1.50;;;7.80;99.90;;;;;;5061143;28;20286;-63
2023/11/04 02:58:40;;;;;;;1.83;1.73;;;7.80;99.90;;;;;;5061995;28;20180;-62
2023/11/04 03:01:06;;;;;;;4.93;2.40;;;7.70;99.90;;;;;;5061556;28;20769;-63
2023/11/04 03:03:31;;;;;;;9.43;2.13;;;7.70;99.90;;;;;;5064272;28;20173;-62
2023/11/04 03:05:57;;;;;;;12.30;2.47;;;7.70;99.90;;;;;;5064529;28;20636;-61
2023/11/04 03:08:24;;;;;;;6.57;2.73;;;7.70;99.90;;;;;;5063164;28;20171;-62
2023/11/04 03:10:49;;;;;;;3.00;1.77;;;7.70;99.90;;;;;;5067018;28;20183;-61
2023/11/04 03:13:15;;;;;;;7.30;2.17;;;7.60;99.90;;;;;;5053600;28;20435;-62
2023/11/04 03:15:41;;;;;;;4.13;2.60;;;7.60;99.90;;;;;;5061292;28;20200;-62
2023/11/04 03:18:07;;;;;;;5.00;1.70;;;7.60;99.90;;;;;;5061352;28;20682;-63
2023/11/04 03:20:33;;;;;;;2.03;1.87;;;7.60;99.90;;;;;;5057692;28;20435;-63
2023/11/04 03:22:58;;;;;;;3.50;1.70;;;7.60;99.90;;;;;;5061271;28;20197;-64
2023/11/04 03:25:24;;;;;;;6.87;2.00;;;7.50;99.90;;;;;;5062723;28;20565;-61
2023/11/04 03:27:49;;;;;;;2.50;1.63;;;7.50;99.90;;;;;;5064952;28;20551;-63
2023/11/04 03:30:15;;;;;;;6.73;4.23;;;7.50;99.90;;;;;;5064432;28;20173;-63
2023/11/04 03:32:41;;;;;;;11.23;2.27;;;7.50;99.90;;;;;;5064412;28;20191;-63
2023/11/04 03:35:07;;;;;;;5.40;2.17;;;7.50;99.90;;;;;;5072318;28;20191;-63
2023/11/04 03:37:34;;;;;;;4.87;2.10;;;7.40;99.90;;;;;;5057134;28;20217;-63
2023/11/04 03:39:59;;;;;;;5.07;2.20;;;7.40;99.90;;;;;;5066088;28;20442;-63
2023/11/04 03:42:25;;;;;;;4.87;2.00;;;7.40;99.90;;;;;;5062747;28;20489;-61
2023/11/04 03:44:51;;;;;;;7.57;2.17;;;7.40;99.90;;;;;;5064566;28;20175;-65
2023/11/04 03:47:16;;;;;;;10.03;2.83;;;7.40;99.90;;;;;;5071657;28;20227;-59
2023/11/04 03:49:42;;;;;;;4.10;1.80;;;7.40;99.90;;;;;;5060732;28;20180;-61
2023/11/04 03:52:09;;;;;;;6.10;1.97;;;7.30;99.90;;;;;;5059208;28;20176;-62
2023/11/04 03:54:35;;;;;;;6.87;2.53;;;7.30;99.90;;;;;;5063663;28;20203;-62
2023/11/04 03:57:01;;;;;;;2.63;1.80;;;7.20;99.90;;;;;;5065857;28;20430;-61
2023/11/04 03:59:27;;;;;;;5.70;1.90;;;7.30;99.90;;;;;;5062515;28;20176;-63
2023/11/04 04:01:52;;;;;;;2.97;1.70;;;7.20;99.90;;;;;;5062587;28;20410;-62
2023/11/04 04:04:18;;;;;;;5.40;1.80;;;7.20;99.90;;;;;;5063089;28;20195;-62
2023/11/04 04:06:44;;;;;;;4.43;2.07;;;7.20;99.90;;;;;;5060182;28;20199;-62
2023/11/04 04:09:10;;;;;;;5.43;2.20;;;7.10;99.90;;;;;;5059241;28;20187;-63
2023/11/04 04:11:35;;;;;;;6.37;1.70;;;7.20;99.90;;;;;;5063829;28;20643;-63
2023/11/04 04:14:01;;;;;;;6.33;1.83;;;7.10;99.90;;;;;;5056970;28;20192;-62
2023/11/04 04:16:27;;;;;;;5.03;2.20;;;7.10;99.90;;;;;;5061850;28;20475;-62
2023/11/04 04:18:53;;;;;;;7.00;1.90;;;7.10;99.90;;;;;;5063397;28;20711;-62
2023/11/04 04:21:19;;;;;;;3.50;1.90;;;7.10;99.90;;;;;;5062741;28;20181;-63
2023/11/04 04:23:44;;;;;;;3.90;2.00;;;7.00;99.90;;;;;;5052642;28;20425;-63
2023/11/04 04:26:16;;;;;;;7.77;2.10;;;7.00;99.90;;;;;;5063332;28;20618;-63
2023/11/04 04:28:41;;;;;;;8.50;2.20;;;6.90;99.90;;;;;;5052176;28;20767;-61
2023/11/04 04:31:07;;;;;;;4.03;1.70;;;6.90;99.90;;;;;;5067214;28;20413;-62
2023/11/04 04:33:32;;;;;;;5.80;2.03;;;6.90;99.90;;;;;;5062836;28;20613;-62
2023/11/04 04:35:58;;;;;;;4.43;2.30;;;6.90;99.90;;;;;;5063211;28;20213;-63
2023/11/04 04:38:24;;;;;;;5.33;2.00;;;6.90;99.90;;;;;;5042100;28;20182;-62
2023/11/04 04:40:49;;;;;;;7.33;2.30;;;7.00;99.90;;;;;;5059883;28;20233;-62
2023/11/04 04:43:15;;;;;;;9.17;2.53;;;6.90;99.90;;;;;;5059622;28;20421;-63
2023/11/04 04:45:41;;;;;;;7.33;1.87;;;6.90;99.90;;;;;;5062847;28;20222;-63
2023/11/04 04:48:06;;;;;;;5.53;2.20;;;6.80;99.90;;;;;;5062830;28;20924;-61
2023/11/04 04:50:32;;;;;;;3.90;1.70;;;6.90;99.90;;;;;;5060039;28;20182;-63
2023/11/04 04:52:57;;;;;;;4.23;2.03;;;6.90;99.90;;;;;;5059495;28;20230;-62
2023/11/04 04:55:23;;;;;;;7.23;2.27;;;6.90;99.90;;;;;;5043251;28;20219;-62
2023/11/04 04:57:49;;;;;;;7.53;1.83;;;6.90;99.90;;;;;;5066575;28;20176;-63
2023/11/04 05:00:15;;;;;;;3.03;1.87;;;6.90;99.90;;;;;;5067355;28;20312;-63
2023/11/04 05:02:42;;;;;;;9.50;2.27;;;6.90;99.90;;;;;;5050997;28;20216;-63
2023/11/04 05:05:09;;;;;;;4.53;1.70;;;6.80;99.90;;;;;;5059263;28;20422;-62
2023/11/04 05:07:36;;;;;;;9.30;2.10;;;6.90;99.90;;;;;;5061637;28;20522;-62
2023/11/04 05:10:02;;;;;;;10.17;2.10;;;6.90;99.90;;;;;;5062677;28;20421;-62
2023/11/04 05:12:28;;;;;;;6.97;2.17;;;6.90;99.90;;;;;;5046884;28;20191;-62
2023/11/04 05:14:53;;;;;;;5.30;3.03;;;6.90;99.90;;;;;;5062341;28;20466;-62
2023/11/04 05:17:19;;;;;;;6.00;2.67;;;6.90;99.90;;;;;;5053467;28;20201;-63
2023/11/04 05:19:46;;;;;;;4.13;1.37;;;6.90;99.90;;;;;;5046830;28;20172;-63
2023/11/04 05:22:12;;;;;;;2.60;1.67;;;6.90;99.90;;;;;;5062514;28;20253;-61
2023/11/04 05:24:37;;;;;;;4.67;1.90;;;6.90;99.90;;;;;;5062559;28;20504;-63
2023/11/04 05:27:03;;;;;;;6.40;1.87;;;6.90;99.90;;;;;;5062211;28;20214;-63
2023/11/04 05:29:30;;;;;;;5.47;1.70;;;7.00;99.90;;;;;;5060861;28;20182;-63
2023/11/04 05:31:56;;;;;;;4.90;1.60;;;7.00;99.90;;;;;;5064287;28;20459;-63
2023/11/04 05:34:22;;;;;;;10.77;1.90;;;7.00;99.90;;;;;;5057821;28;20505;-63
2023/11/04 05:36:48;;;;;;;5.63;2.10;;;7.00;99.90;;;;;;5054045;28;20191;-62
2023/11/04 05:39:15;;;;;;;7.33;1.70;;;7.00;99.90;;;;;;5062935;28;20171;-63
2023/11/04 05:41:41;;;;;;;2.23;1.90;;;7.00;99.90;;;;;;5062442;28;20405;-61
2023/11/04 05:44:07;;;;;;;6.63;2.77;;;7.00;99.90;;;;;;5062214;28;20422;-63
2023/11/04 05:46:33;;;;;;;2.83;1.90;;;7.00;99.90;;;;;;5061968;28;20199;-62
2023/11/04 05:48:58;;;;;;;4.70;2.50;;;7.10;99.90;;;;;;5053453;28;20568;-62
2023/11/04 05:51:27;;;;;;;7.30;1.83;;;7.00;99.90;;;;;;5061280;28;20633;-62
2023/11/04 05:53:52;;;;;;;4.70;2.20;;;7.00;99.90;;;;;;5050964;28;20176;-63
2023/11/04 05:56:19;;;;;;;4.00;2.37;;;7.10;99.90;;;;;;5058796;28;20436;-62
2023/11/04 05:58:46;;;;;;;7.73;2.10;;;7.00;99.90;;;;;;5066738;28;20168;-62
2023/11/04 06:01:12;;;;;;;8.90;2.20;;;7.00;99.90;;;;;;5066432;28;20414;-63
2023/11/04 06:03:38;;;;;;;7.97;3.50;;;7.00;99.90;;;;;;5059254;28;20402;-63
2023/11/04 06:06:03;;;;;;;3.00;1.93;;;7.00;99.90;;;;;;5058231;28;20468;-62
2023/11/04 06:08:29;;;;;;;11.77;2.40;;;7.00;99.90;;;;;;5059908;28;20726;-62
2023/11/04 06:10:55;;;;;;;8.57;2.47;;;7.10;99.90;;;;;;5062613;28;20499;-62
2023/11/04 06:13:20;;;;;;;7.60;3.13;;;7.00;99.90;;;;;;5060114;28;20570;-62
2023/11/04 06:15:46;;;;;;;4.63;2.20;;;7.10;99.90;;;;;;5058287;28;20215;-62
2023/11/04 06:18:12;;;;;;;6.67;2.37;;;7.00;99.90;;;;;;5058690;28;20175;-63
2023/11/04 06:20:38;;;;;;;4.43;2.00;;;7.00;99.90;;;;;;5066631;28;20412;-62
2023/11/04 06:23:03;;;;;;;5.97;2.50;;;7.00;99.90;;;;;;5058555;28;20182;-62
2023/11/04 06:25:29;;;;;;;3.23;2.50;;;7.10;99.90;;;;;;5061313;28;20179;-63
2023/11/04 06:27:54;;;;;;;4.00;2.67;;;7.10;99.90;;;;;;5059491;28;20208;-62
2023/11/04 06:30:20;;;;;;;8.23;2.23;;;7.10;99.90;;;;;;5043866;28;20769;-61
2023/11/04 06:32:45;;;;;;;5.43;2.20;;;7.10;99.90;;;;;;5070461;28;20543;-62
2023/11/04 06:35:11;;;;;;;10.43;2.70;;;7.10;99.90;;;;;;5062486;28;20194;-61
2023/11/04 06:37:41;;;;;;;6.27;2.33;;;7.20;99.90;;;;;;5064483;28;20189;-62
2023/11/04 06:40:09;;;;;;;7.70;2.67;;;7.40;99.90;;;;;;5067956;28;20207;-65
2023/11/04 06:42:35;;;;;;;5.70;1.93;;;7.40;99.90;;;;;;5063902;28;20419;-62
2023/11/04 06:45:02;;;;;;;4.50;2.50;;;7.50;99.90;;;;;;5073685;28;20425;-62
2023/11/04 06:47:27;;;;;;;6.10;2.43;;;7.40;99.90;;;;;;5070549;28;20457;-61
2023/11/04 06:49:53;;;;;;;6.27;2.13;;;7.40;99.90;;;;;;5062013;28;20414;-62
2023/11/04 06:52:19;;;;;;;2.70;1.80;;;7.30;99.90;;;;;;5042063;28;20558;-61
2023/11/04 06:54:44;;;;;;;4.03;2.37;;;7.30;99.90;;;;;;5053425;28;20662;-62
2023/11/04 06:57:10;;;;;;;5.43;2.13;;;7.40;99.90;;;;;;5061706;28;20191;-62
2023/11/04 06:59:40;;;;;;;2.73;2.03;;;7.40;99.90;;;;;;5072020;28;20258;-62
2023/11/04 07:02:07;;;;;;;7.50;2.67;;;7.40;99.90;;;;;;5043096;28;20200;-63
2023/11/04 07:04:33;;;;;;;5.23;2.20;;;7.40;99.90;;;;;;5061157;28;20439;-62
2023/11/04 07:06:58;;;;;;;6.40;2.00;;;7.40;99.90;;;;;;5068480;28;20525;-62
2023/11/04 07:09:24;;;;;;;3.93;1.80;;;7.40;99.90;;;;;;5043369;28;20680;-61
2023/11/04 07:11:49;;;;;;;2.43;1.83;;;7.50;99.90;;;;;;5065252;28;20213;-63
2023/11/04 07:14:16;;;;;;;6.33;2.90;;;7.50;99.90;;;;;;5066008;28;20211;-63
2023/11/04 07:16:42;;;;;;;4.73;2.30;;;7.60;99.90;;;;;;5062896;28;20188;-61
2023/11/04 07:19:09;;;;;;;3.00;2.07;;;7.60;99.90;;;;;;5061847;28;20414;-63
2023/11/04 07:21:37;;;;;;;5.70;2.13;;;7.50;99.90;;;;;;5058988;28;20178;-63
2023/11/04 07:24:03;;;;;;;2.73;1.60;;;7.50;99.90;;;;;;5050195;28;20438;-62
2023/11/04 07:26:29;;;;;;;5.00;2.20;;;7.60;99.90;;;;;;5065393;28;20914;-64
2023/11/04 07:28:55;;;;;;;2.57;1.90;;;7.60;99.90;;;;;;5061939;28;20910;-64
2023/11/04 07:31:22;;;;;;;4.40;1.53;;;7.60;99.90;;;;;;5061998;28;20451;-64
2023/11/04 07:33:48;;;;;;;6.90;2.03;;;7.60;99.90;;;;;;5065585;28;20404;-63
2023/11/04 07:36:21;;;;;;;2.97;1.70;;;7.60;99.90;;;;;;5064427;28;20436;-63
2023/11/04 07:38:47;;;;;;;2.30;1.87;;;7.70;99.90;;;;;;5061482;28;20217;-62
2023/11/04 07:41:12;;;;;;;3.70;1.90;;;7.80;99.90;;;;;;5056400;28;20544;-63
2023/11/04 07:43:38;;;;;;;3.27;2.23;;;7.70;99.90;;;;;;5046090;28;20178;-62
2023/11/04 07:46:04;;;;;;;4.87;2.27;;;7.80;99.90;;;;;;5065000;28;20207;-63
2023/11/04 07:48:29;;;;;;;4.27;2.00;;;7.80;99.90;;;;;;5064577;28;20180;-62
2023/11/04 07:50:55;;;;;;;6.40;2.07;;;8.00;99.90;;;;;;5061143;28;20513;-62
2023/11/04 07:53:21;;;;;;;6.07;2.07;;;8.60;99.90;;;;;;5060679;28;20178;-62
2023/11/04 07:55:46;;;;;;;5.57;2.47;;;9.00;99.90;;;;;;5060770;28;20204;-63
2023/11/04 07:58:12;;;;;;;5.83;2.20;;;9.70;99.90;;;;;;5055090;28;20563;-63
2023/11/04 08:00:37;;;;;;;5.30;2.70;;;10.00;99.90;;;;;;5059265;28;20205;-64
2023/11/04 08:03:03;;;;;;;7.50;2.10;;;9.90;99.90;;;;;;5065884;28;20652;-63
2023/11/04 08:05:29;;;;;;;4.17;1.80;;;10.10;99.90;;;;;;5063839;28;20230;-64
2023/11/04 08:07:55;;;;;;;3.40;1.80;;;10.20;99.90;;;;;;5064146;28;20567;-64
2023/11/04 08:10:20;;;;;;;4.00;2.10;;;10.40;99.90;;;;;;5064983;28;20412;-65
2023/11/04 08:12:46;;;;;;;3.90;2.30;;;9.90;99.90;;;;;;5069406;28;20262;-65
2023/11/04 08:15:12;;;;;;;4.70;1.90;;;10.10;99.90;;;;;;5057112;28;20525;-64
2023/11/04 08:17:39;;;;;;;3.97;2.13;;;9.60;99.90;;;;;;5068755;28;20194;-65
2023/11/04 08:20:08;;;;;;;5.50;1.90;;;9.20;99.90;;;;;;5060660;28;20245;-65
2023/11/04 08:22:39;;;;;;;7.93;2.30;;;8.90;99.90;;;;;;5061335;28;20422;-63
2023/11/04 08:25:06;;;;;;;2.57;1.87;;;8.90;99.90;;;;;;5063892;28;20427;-65
2023/11/04 08:27:32;;;;;;;3.20;1.90;;;9.30;99.90;;;;;;5063796;28;20438;-64
2023/11/04 08:29:58;;;;;;;4.07;2.00;;;9.60;99.90;;;;;;5053537;28;20936;-65
2023/11/04 08:32:23;;;;;;;6.67;2.13;;;10.60;99.90;;;;;;5051867;28;20416;-65
2023/11/04 08:34:49;;;;;;;4.40;1.70;;;11.10;99.90;;;;;;5060733;28;20666;-64
2023/11/04 08:37:14;;;;;;;3.83;2.20;;;11.10;99.90;;;;;;5060178;28;20610;-65
2023/11/04 08:39:40;;;;;;;3.93;1.90;;;11.80;99.90;;;;;;5061904;28;20167;-61
2023/11/04 08:42:06;;;;;;;3.10;2.03;;;12.00;99.90;;;;;;5063156;28;20273;-63
2023/11/04 08:44:32;;;;;;;2.10;2.00;;;11.70;99.90;;;;;;5049078;28;20178;-64
2023/11/04 08:46:58;;;;;;;5.20;1.97;;;11.70;99.90;;;;;;5043050;28;20441;-64
2023/11/04 08:49:24;;;;;;;5.80;2.20;;;11.50;99.90;;;;;;5041536;28;20178;-63
2023/11/04 08:51:49;;;;;;;2.20;1.57;;;11.50;99.90;;;;;;5063013;28;20178;-64
2023/11/04 08:54:15;;;;;;;1.63;1.53;;;11.60;99.90;;;;;;5063910;28;20205;-64
2023/11/04 08:56:42;;;;;;;2.90;1.73;;;11.70;99.90;;;;;;5062796;28;20291;-62
2023/11/04 08:59:08;;;;;;;2.07;1.70;;;10.90;99.90;;;;;;5071700;28;20704;-64
2023/11/04 09:01:34;;;;;;;5.60;2.20;;;10.60;99.90;;;;;;5060046;28;20528;-63
2023/11/04 09:04:00;;;;;;;4.43;2.37;;;10.20;99.90;;;;;;5066683;28;20916;-64
2023/11/04 09:06:25;;;;;;;2.53;2.10;;;10.10;99.90;;;;;;5059558;28;20215;-65
2023/11/04 09:08:51;;;;;;;5.03;2.13;;;10.20;99.90;;;;;;5062721;28;20509;-64
2023/11/04 09:11:16;;;;;;;4.90;1.50;;;10.30;99.90;;;;;;5062934;28;20216;-64
2023/11/04 09:13:43;;;;;;;2.93;1.67;;;10.40;99.90;;;;;;5060904;28;20170;-64
2023/11/04 09:16:09;;;;;;;2.07;1.40;;;10.40;99.90;;;;;;5059509;28;20621;-64
2023/11/04 09:18:37;;;;;;;2.50;1.10;;;10.50;99.90;;;;;;5062518;28;20520;-63
2023/11/04 09:21:04;;;;;;;2.80;1.70;;;10.70;99.90;;;;;;5059103;28;20422;-64
2023/11/04 09:23:30;;;;;;;2.37;2.17;;;10.60;99.90;;;;;;5067628;28;20481;-65
2023/11/04 09:25:55;;;;;;;22.53;3.47;;;10.60;99.90;;;;;;5062921;28;20439;-64
2023/11/04 09:28:22;;;;;;;2.57;1.90;;;10.80;99.90;;;;;;5062672;28;20178;-63
2023/11/04 09:30:49;;;;;;;4.37;1.50;;;10.60;99.90;;;;;;5040313;28;20176;-64
2023/11/04 09:33:15;;;;;;;2.40;1.90;;;10.50;99.90;;;;;;5051249;28;20443;-65
2023/11/04 09:35:41;;;;;;;5.47;1.70;;;10.40;99.90;;;;;;5061192;28;21000;-65
2023/11/04 09:38:06;;;;;;;1.60;1.50;;;10.40;99.90;;;;;;5059218;28;20876;-64
2023/11/04 09:40:32;;;;;;;2.73;1.77;;;10.30;99.90;;;;;;5059026;28;20500;-64
2023/11/04 09:42:58;;;;;;;2.80;1.50;;;10.20;99.90;;;;;;5044832;28;20180;-64
2023/11/04 09:45:24;;;;;;;3.20;1.60;;;10.20;99.90;;;;;;5053748;28;20652;-63
2023/11/04 09:47:50;;;;;;;3.13;1.53;;;10.30;99.90;;;;;;5062483;28;20556;-64
2023/11/04 09:50:16;;;;;;;2.97;1.60;;;10.40;99.90;;;;;;5057879;28;20738;-64
2023/11/04 09:52:50;;;;;;;2.43;1.83;;;10.40;99.90;;;;;;5060185;28;20409;-64
2023/11/04 09:55:17;;;;;;;1.83;1.60;;;10.30;99.90;;;;;;5062388;28;20208;-62
2023/11/04 09:57:43;;;;;;;1.27;1.17;;;10.20;99.90;;;;;;5061121;28;20412;-65
2023/11/04 10:00:09;;;;;;;2.53;1.60;;;10.30;99.90;;;;;;5046851;28;20432;-65
2023/11/04 10:02:35;;;;;;;4.40;2.33;;;10.30;99.90;;;;;;5066681;28;20432;-65
2023/11/04 10:05:04;;;;;;;3.40;1.73;;;10.40;99.90;;;;;;5071431;28;20514;-64
2023/11/04 10:07:30;;;;;;;4.00;1.80;;;10.30;99.90;;;;;;5063331;28;20252;-66
2023/11/04 10:09:58;;;;;;;1.60;1.43;;;10.40;99.90;;;;;;5074246;28;20401;-67
2023/11/04 10:12:27;;;;;;;3.10;1.50;;;10.40;99.90;;;;;;5066899;28;20416;-68
2023/11/04 10:15:01;;;;;;;1.77;1.40;;;10.50;99.90;;;;;;5062164;28;21027;-67
2023/11/04 10:17:30;;;;;;;1.63;1.33;;;10.60;99.90;;;;;;5060430;28;20863;-67
2023/11/04 10:19:58;;;;;;;4.80;1.33;;;10.60;99.90;;;;;;5067119;28;20407;-68
2023/11/04 10:22:30;;;;;;;1.40;1.03;;;10.50;99.90;;;;;;5067117;28;20462;-67
2023/11/04 10:24:59;;;;;;;5.50;1.60;;;10.50;99.90;;;;;;5063524;28;20431;-66
2023/11/04 10:27:30;;;;;;;1.97;1.50;;;10.60;99.90;;;;;;5062413;28;20942;-65
2023/11/04 10:30:00;;;;;;;3.13;1.20;;;10.80;99.90;;;;;;5063655;28;20413;-63
2023/11/04 10:32:41;;;;;;;2.37;1.40;;;10.70;99.90;;;;;;5045083;28;20521;-65
2023/11/04 10:35:11;;;;;;;1.50;1.40;;;10.70;99.90;;;;;;5056313;28;20499;-64
2023/11/04 10:37:46;;;;;;;1.40;1.30;;;10.70;99.90;;;;;;5056608;28;20477;-67
2023/11/04 10:40:15;;;;;;;2.23;1.40;;;10.70;99.90;;;;;;5066109;28;20776;-66
2023/11/04 10:42:53;;;;;;;1.50;1.40;;;10.80;99.90;;;;;;5064746;28;20412;-64
2023/11/04 10:45:30;;;;;;;1.47;1.27;;;10.80;99.90;;;;;;5058565;28;20425;-64
2023/11/04 10:48:03;;;;;;;1.77;1.30;;;10.80;99.90;;;;;;5049660;28;20434;-64
2023/11/04 10:50:41;;;;;;;2.77;1.50;;;11.00;99.90;;;;;;5058173;28;20406;-64
2023/11/04 10:53:38;;;;;;;1.70;1.13;;;11.10;99.90;;;;;;5059695;28;20965;-65
2023/11/04 10:56:11;;;;;;;1.37;1.23;;;11.20;99.90;;;;;;5054352;28;20919;-65
2023/11/04 10:58:59;;;;;;;2.60;1.30;;;11.10;99.90;;;;;;5069801;28;20539;-66
2023/11/04 11:01:32;;;;;;;4.03;1.50;;;11.10;99.90;;;;;;5062976;28;20417;-67
2023/11/04 11:04:05;;;;;;;2.97;1.20;;;11.20;99.90;;;;;;5063162;28;21004;-66
2023/11/04 11:06:34;;;;;;;1.20;1.10;;;11.20;99.90;;;;;;5073435;28;20528;-66
2023/11/04 11:09:08;;;;;;;1.23;1.13;;;11.20;99.90;;;;;;5065116;28;20919;-66
2023/11/04 11:11:59;;;;;;;1.60;1.20;;;11.50;99.90;;;;;;5064684;28;20420;-66
2023/11/04 11:14:26;;;;;;;5.90;1.40;;;11.60;99.90;;;;;;5063883;28;20450;-67
2023/11/04 11:17:01;;;;;;;2.40;1.30;;;11.50;99.90;;;;;;5064990;28;20502;-66
2023/11/04 11:19:29;;;;;;;3.20;1.30;;;11.40;99.90;;;;;;5060023;28;20424;-66
2023/11/04 11:22:06;;;;;;;4.27;1.30;;;11.40;99.90;;;;;;5063939;28;20780;-65
2023/11/04 11:24:34;;;;;;;3.00;0.97;;;11.50;99.90;;;;;;5064961;28;20907;-65
2023/11/04 11:27:04;;;;;;;1.93;1.03;;;11.50;99.90;;;;;;5052906;28;20561;-65
2023/11/04 11:29:33;;;;;;;1.67;1.33;;;11.60;99.90;;;;;;5055827;28;20499;-66
2023/11/04 11:32:10;;;;;;;2.87;1.40;;;11.80;99.90;;;;;;5055235;28;20432;-66
2023/11/04 11:34:55;;;;;;;2.37;1.63;;;11.90;99.90;;;;;;5050474;28;20526;-64
2023/11/04 11:37:36;;;;;;;2.63;1.07;;;12.10;99.90;;;;;;5052754;28;20445;-65
2023/11/04 11:40:12;;;;;;;3.03;1.40;;;12.00;99.90;;;;;;5064430;28;20408;-65
2023/11/04 11:42:39;;;;;;;1.10;0.83;;;11.90;99.90;;;;;;5064223;28;20807;-64
2023/11/04 11:45:12;;;;;;;2.00;1.00;;;11.90;99.90;;;;;;5061064;28;20753;-64
2023/11/04 11:47:42;;;;;;;1.20;1.10;;;11.90;99.90;;;;;;5069447;28;20424;-67
2023/11/04 11:50:10;;;;;;;1.20;1.00;;;11.90;99.90;;;;;;5053517;28;20452;-66
2023/11/04 11:52:39;;;;;;;1.20;1.10;;;11.90;99.90;;;;;;5060884;28;20880;-67
2023/11/04 11:55:08;;;;;;;2.40;1.00;;;12.10;99.90;;;;;;5041324;28;20496;-64
2023/11/04 11:57:35;;;;;;;1.70;1.27;;;12.10;99.90;;;;;;5063379;28;20432;-65
2023/11/04 12:00:01;;;;;;;2.33;0.90;;;12.30;99.90;;;;;;5040361;28;20457;-64
2023/11/04 12:02:27;;;;;;;0.93;0.90;;;12.00;99.90;;;;;;5041144;28;20943;-63
2023/11/04 12:05:02;;;;;;;1.17;1.07;;;12.10;99.90;;;;;;5069322;28;20197;-66
2023/11/04 12:07:34;;;;;;;1.43;1.03;;;12.10;99.90;;;;;;5067783;28;20201;-64
2023/11/04 12:10:04;;;;;;;1.13;1.00;;;12.00;99.90;;;;;;5072610;28;20408;-65
2023/11/04 12:12:36;;;;;;;1.50;0.97;;;12.00;99.90;;;;;;5072199;28;20416;-67
2023/11/04 12:15:11;;;;;;;1.43;1.00;;;12.00;99.90;;;;;;5071931;28;20444;-64
2023/11/04 12:17:54;;;;;;;2.10;1.30;;;12.00;99.90;;;;;;5072403;28;20443;-64
2023/11/04 12:20:26;;;;;;;1.53;1.43;;;12.10;99.90;;;;;;5051791;28;20426;-65
2023/11/04 12:22:58;;;;;;;1.57;0.90;;;12.10;99.90;;;;;;5067244;28;20408;-65
2023/11/04 12:25:26;;;;;;;1.20;1.10;;;11.90;99.90;;;;;;5071878;28;20945;-65
2023/11/04 12:27:52;;;;;;;1.37;1.23;;;11.90;99.90;;;;;;5071836;28;20412;-65
2023/11/04 12:30:30;;;;;;;2.90;1.90;;;12.00;99.90;;;;;;5071926;28;20404;-65
2023/11/04 12:33:01;;;;;;;1.23;0.93;;;12.00;99.90;;;;;;5039307;28;20461;-65
2023/11/04 12:35:29;;;;;;;1.63;0.90;;;12.00;99.90;;;;;;5040942;28;20462;-66
2023/11/04 12:38:02;;;;;;;2.50;1.17;;;12.00;99.90;;;;;;5060247;28;20437;-66
2023/11/04 12:40:34;;;;;;;1.53;1.27;;;12.00;99.90;;;;;;5066347;28;20718;-65
2023/11/04 12:43:08;;;;;;;5.33;3.43;;;12.20;99.90;;;;;;5062279;28;20443;-62
2023/11/04 12:45:40;;;;;;;2.60;1.67;;;12.20;99.90;;;;;;5064719;28;20439;-66
2023/11/04 12:48:11;;;;;;;1.47;1.27;;;12.10;99.90;;;;;;5063291;28;20982;-63
2023/11/04 12:50:37;;;;;;;2.73;1.90;;;12.10;99.90;;;;;;5063951;28;20405;-64
2023/11/04 12:53:03;;;;;;;3.03;0.90;;;12.20;99.90;;;;;;5047939;28;20910;-66